createdAt,value
2016-08-21T00:00:12.023Z,21.76
2016-08-21T00:05:09.683Z,21.77
2016-08-21T00:10:07.466Z,21.73
2016-08-21T00:15:05.165Z,21.67
2016-08-21T00:20:02.853Z,21.77
2016-08-21T00:25:01.473Z,21.69
2016-08-21T00:29:59.336Z,21.62
2016-08-21T00:34:57.017Z,21.64
2016-08-21T00:39:54.812Z,21.55
2016-08-21T00:44:52.526Z,21.55
2016-08-21T00:49:50.252Z,21.55
2016-08-21T00:54:47.917Z,21.46
2016-08-21T00:59:46.461Z,21.45
2016-08-21T01:04:43.895Z,21.46
2016-08-21T01:09:43.617Z,21.45
2016-08-21T01:14:40.918Z,21.46
2016-08-21T01:19:38.755Z,21.36
2016-08-21T01:24:36.441Z,21.36
2016-08-21T01:29:34.173Z,21.22
2016-08-21T01:34:31.986Z,21.21
2016-08-21T01:39:29.582Z,21.17
2016-08-21T01:44:27.309Z,21.29
2016-08-21T01:49:25.197Z,21.21
2016-08-21T01:54:22.901Z,21.05
2016-08-21T01:59:20.585Z,21.14
2016-08-21T02:04:18.339Z,21.07
2016-08-21T02:09:16.111Z,21.03
2016-08-21T02:14:13.533Z,21.07
2016-08-21T02:19:11.164Z,20.90
2016-08-21T02:24:08.875Z,20.96
2016-08-21T02:29:06.496Z,20.93
2016-08-21T02:34:04.254Z,20.82
2016-08-21T02:39:02.009Z,20.92
2016-08-21T02:43:59.531Z,20.99
2016-08-21T02:48:57.313Z,20.93
2016-08-21T02:53:55.107Z,20.92
2016-08-21T02:58:52.888Z,21.00
2016-08-21T03:03:50.616Z,20.84
2016-08-21T03:08:48.382Z,20.80
2016-08-21T03:13:46.053Z,20.90
2016-08-21T03:18:43.902Z,20.90
2016-08-21T03:23:41.586Z,20.78
2016-08-21T03:28:39.481Z,20.78
2016-08-21T03:33:37.105Z,20.85
2016-08-21T03:38:34.706Z,20.84
2016-08-21T03:43:32.304Z,20.72
2016-08-21T03:48:30.068Z,20.75
2016-08-21T03:53:27.780Z,20.82
2016-08-21T03:58:25.535Z,20.75
2016-08-21T04:03:23.313Z,20.82
2016-08-21T04:08:20.982Z,20.78
2016-08-21T04:13:18.611Z,20.75
2016-08-21T04:18:16.345Z,20.75
2016-08-21T04:23:14.060Z,20.66
2016-08-21T04:28:11.567Z,20.74
2016-08-21T04:33:09.237Z,20.65
2016-08-21T04:38:07.072Z,20.75
2016-08-21T04:43:04.890Z,20.80
2016-08-21T04:48:02.709Z,20.92
2016-08-21T04:53:00.683Z,20.90
2016-08-21T04:57:58.321Z,20.81
2016-08-21T05:02:56.032Z,20.78
2016-08-21T05:07:53.703Z,20.74
2016-08-21T05:12:51.818Z,20.84
2016-08-21T05:17:49.401Z,20.96
2016-08-21T05:22:47.205Z,21.09
2016-08-21T05:27:44.912Z,21.12
2016-08-21T05:32:42.707Z,21.17
2016-08-21T05:37:40.498Z,21.45
2016-08-21T05:42:38.303Z,21.51
2016-08-21T05:47:36.068Z,21.52
2016-08-21T05:52:34.164Z,21.54
2016-08-21T05:57:31.972Z,21.73
2016-08-21T06:02:29.726Z,21.77
2016-08-21T06:07:27.650Z,21.95
2016-08-21T06:12:25.427Z,22.17
2016-08-21T06:17:23.028Z,22.39
2016-08-21T06:22:20.943Z,23.03
2016-08-21T06:27:18.764Z,23.00
2016-08-21T06:32:16.536Z,22.62
2016-08-21T06:37:14.302Z,22.43
2016-08-21T06:42:12.031Z,22.54
2016-08-21T06:47:09.740Z,22.54
2016-08-21T06:52:07.377Z,22.44
2016-08-21T06:57:05.019Z,22.41
2016-08-21T07:02:02.719Z,22.39
2016-08-21T07:07:00.388Z,22.39
2016-08-21T07:11:58.142Z,22.55
2016-08-21T07:16:55.860Z,22.47
2016-08-21T07:21:53.740Z,22.60
2016-08-21T07:26:51.507Z,22.63
2016-08-21T07:31:49.266Z,22.68
2016-08-21T07:36:47.111Z,22.70
2016-08-21T07:41:44.714Z,22.54
2016-08-21T07:46:42.303Z,22.41
2016-08-21T07:51:39.910Z,22.32
2016-08-21T07:56:37.787Z,22.14
2016-08-21T08:01:35.302Z,22.06
2016-08-21T08:06:32.940Z,22.02
2016-08-21T08:11:30.844Z,22.20
2016-08-21T08:16:28.795Z,22.17
2016-08-21T08:21:26.518Z,22.08
2016-08-21T08:26:24.308Z,22.11
2016-08-21T08:31:22.032Z,21.98
2016-08-21T08:36:19.753Z,22.10
2016-08-21T08:41:17.416Z,22.18
2016-08-21T08:46:15.157Z,22.47
2016-08-21T08:51:12.847Z,22.63
2016-08-21T08:56:10.831Z,22.47
2016-08-21T09:01:08.596Z,22.47
2016-08-21T09:06:06.132Z,22.36
2016-08-21T09:11:03.739Z,22.06
2016-08-21T09:16:01.413Z,22.02
2016-08-21T09:20:59.173Z,21.99
2016-08-21T09:25:56.683Z,21.95
2016-08-21T09:30:54.411Z,22.14
2016-08-21T09:35:52.108Z,22.04
2016-08-21T09:40:49.762Z,21.85
2016-08-21T09:45:47.294Z,21.99
2016-08-21T09:50:45.009Z,21.95
2016-08-21T09:55:42.601Z,21.89
2016-08-21T10:00:40.989Z,21.80
2016-08-21T10:05:38.493Z,21.76
2016-08-21T10:10:36.196Z,21.76
2016-08-21T10:15:33.861Z,21.92
2016-08-21T10:20:31.498Z,21.98
2016-08-21T10:25:29.228Z,21.99
2016-08-21T10:30:26.845Z,22.02
2016-08-21T10:35:24.640Z,22.14
2016-08-21T10:40:22.263Z,22.02
2016-08-21T10:45:19.837Z,22.04
2016-08-21T10:50:17.498Z,22.17
2016-08-21T10:55:15.207Z,22.30
2016-08-21T11:00:12.987Z,22.33
2016-08-21T11:05:10.812Z,22.14
2016-08-21T11:10:08.424Z,22.02
2016-08-21T11:15:06.124Z,22.02
2016-08-21T11:20:03.664Z,21.87
2016-08-21T11:25:01.462Z,21.98
2016-08-21T11:29:59.176Z,21.79
2016-08-21T11:34:56.688Z,21.73
2016-08-21T11:39:54.172Z,21.62
2016-08-21T11:44:51.922Z,21.62
2016-08-21T11:49:49.478Z,21.87
2016-08-21T11:54:47.280Z,22.08
2016-08-21T11:59:45.007Z,22.15
2016-08-21T12:04:42.864Z,22.14
2016-08-21T12:09:40.565Z,22.17
2016-08-21T12:14:38.263Z,22.18
2016-08-21T12:19:36.041Z,22.45
2016-08-21T12:24:33.862Z,22.54
2016-08-21T12:29:31.398Z,22.80
2016-08-21T12:34:28.965Z,22.63
2016-08-21T12:39:26.640Z,22.68
2016-08-21T12:44:24.408Z,22.80
2016-08-21T12:49:21.809Z,22.73
2016-08-21T12:54:19.451Z,22.78
2016-08-21T12:59:17.297Z,22.80
2016-08-21T13:04:14.712Z,22.91
2016-08-21T13:09:12.328Z,22.94
2016-08-21T13:14:09.975Z,22.90
2016-08-21T13:19:07.740Z,22.70
2016-08-21T13:24:05.416Z,22.50
2016-08-21T13:29:02.885Z,22.32
2016-08-21T13:34:00.718Z,22.25
2016-08-21T13:38:58.483Z,22.22
2016-08-21T13:43:56.023Z,22.38
2016-08-21T13:48:53.673Z,22.48
2016-08-21T13:53:51.173Z,22.50
2016-08-21T13:58:48.815Z,22.53
2016-08-21T14:03:46.422Z,22.45
2016-08-21T14:08:44.026Z,22.47
2016-08-21T14:13:41.699Z,22.22
2016-08-21T14:18:39.349Z,22.39
2016-08-21T14:23:37.042Z,22.41
2016-08-21T14:28:34.776Z,22.30
2016-08-21T14:33:32.428Z,22.25
2016-08-21T14:38:29.977Z,22.36
2016-08-21T14:43:27.467Z,22.44
2016-08-21T14:48:25.315Z,22.41
2016-08-21T14:53:22.926Z,22.45
2016-08-21T14:58:20.478Z,22.55
2016-08-21T15:03:18.229Z,22.69
2016-08-21T15:08:15.726Z,22.93
2016-08-21T15:13:13.226Z,23.15
2016-08-21T15:18:10.968Z,23.17
2016-08-21T15:23:08.703Z,23.37
2016-08-21T15:28:06.389Z,23.34
2016-08-21T15:33:05.024Z,23.12
2016-08-21T15:38:02.691Z,22.99
2016-08-21T15:43:00.188Z,22.81
2016-08-21T15:47:57.844Z,22.73
2016-08-21T15:52:55.459Z,22.68
2016-08-21T15:57:52.956Z,22.63
2016-08-21T16:02:50.754Z,22.48
2016-08-21T16:07:48.175Z,22.35
2016-08-21T16:12:45.842Z,22.39
2016-08-21T16:17:43.346Z,22.39
2016-08-21T16:22:40.981Z,22.53
2016-08-21T16:27:38.740Z,22.62
2016-08-21T16:32:36.359Z,22.41
2016-08-21T16:37:34.002Z,22.39
2016-08-21T16:42:31.550Z,22.30
2016-08-21T16:47:29.134Z,22.38
2016-08-21T16:52:26.785Z,22.20
2016-08-21T16:57:24.404Z,22.10
2016-08-21T17:02:22.005Z,22.14
2016-08-21T17:07:19.617Z,22.14
2016-08-21T17:12:17.350Z,22.13
2016-08-21T17:17:14.807Z,22.20
2016-08-21T17:22:12.403Z,22.15
2016-08-21T17:27:10.131Z,22.20
2016-08-21T17:32:09.247Z,22.22
2016-08-21T17:37:06.464Z,22.02
2016-08-21T17:42:04.311Z,22.02
2016-08-21T17:47:01.893Z,21.87
2016-08-21T17:51:59.566Z,21.99
2016-08-21T17:56:57.317Z,21.85
2016-08-21T18:01:54.888Z,21.75
2016-08-21T18:06:52.630Z,21.76
2016-08-21T18:11:50.123Z,21.79
2016-08-21T18:16:48.598Z,21.80
2016-08-21T18:21:46.028Z,21.76
2016-08-21T18:26:43.986Z,21.61
2016-08-21T18:31:41.786Z,21.72
2016-08-21T18:36:39.376Z,21.67
2016-08-21T18:41:37.049Z,21.67
2016-08-21T18:46:34.804Z,21.70
2016-08-21T18:51:32.459Z,21.67
2016-08-21T18:56:30.020Z,21.70
2016-08-21T19:01:27.647Z,21.50
2016-08-21T19:06:25.223Z,21.52
2016-08-21T19:11:23.352Z,21.48
2016-08-21T19:16:20.747Z,21.51
2016-08-21T19:21:18.399Z,21.52
2016-08-21T19:26:16.526Z,21.64
2016-08-21T19:31:13.864Z,21.36
2016-08-21T19:36:11.502Z,21.40
2016-08-21T19:41:09.377Z,21.42
2016-08-21T19:46:07.114Z,21.30
2016-08-21T19:51:04.856Z,21.42
2016-08-21T19:56:02.461Z,21.35
2016-08-21T20:01:00.090Z,21.45
2016-08-21T20:05:57.843Z,21.46
2016-08-21T20:10:55.535Z,21.55
2016-08-21T20:15:53.124Z,21.33
2016-08-21T20:20:50.720Z,21.35
2016-08-21T20:25:48.304Z,21.36
2016-08-21T20:30:45.996Z,21.42
2016-08-21T20:35:43.768Z,21.39
2016-08-21T20:40:41.353Z,21.30
2016-08-21T20:45:39.294Z,21.35
2016-08-21T20:50:36.841Z,21.42
2016-08-21T20:55:34.511Z,21.32
2016-08-21T21:00:32.303Z,21.36
2016-08-21T21:05:30.575Z,21.42
2016-08-21T21:10:27.994Z,21.42
2016-08-21T21:15:25.748Z,21.39
2016-08-21T21:20:23.365Z,21.29
2016-08-21T21:25:21.084Z,21.29
2016-08-21T21:30:18.767Z,21.30
2016-08-21T21:35:16.441Z,21.29
2016-08-21T21:40:14.192Z,21.30
2016-08-21T21:45:11.859Z,21.27
2016-08-21T21:50:09.743Z,21.29
2016-08-21T21:55:07.382Z,21.32
2016-08-21T22:00:05.182Z,21.40
2016-08-21T22:05:02.820Z,21.30
2016-08-21T22:10:00.394Z,21.18
2016-08-21T22:14:57.987Z,21.18
2016-08-21T22:19:55.666Z,21.14
2016-08-21T22:24:53.343Z,21.18
2016-08-21T22:29:51.037Z,21.21
2016-08-21T22:34:48.666Z,21.27
2016-08-21T22:39:46.214Z,21.24
2016-08-21T22:44:43.906Z,21.17
2016-08-21T22:49:41.515Z,20.97
2016-08-21T22:54:39.133Z,20.92
2016-08-21T22:59:36.845Z,20.97
2016-08-21T23:04:34.421Z,20.92
2016-08-21T23:09:32.204Z,20.87
2016-08-21T23:14:29.908Z,20.93
2016-08-21T23:19:27.560Z,20.96
2016-08-21T23:24:25.326Z,20.95
2016-08-21T23:29:22.880Z,20.87
2016-08-21T23:34:20.521Z,20.84
2016-08-21T23:39:18.177Z,20.81
2016-08-21T23:44:15.922Z,20.74
2016-08-21T23:49:13.504Z,20.85
2016-08-21T23:54:11.219Z,20.81
2016-08-21T23:59:09.035Z,20.82
